Pagrindinis puslapis
METAR-TAF:

METAR-TAF

Oro uostai :

Rurenabakė, Bolivija

platuma: 14-28S, ilguma: 067-34W, Aukštis: 204 m

Dabartinis oras

Ataskaita buvo paskelbta 12 minutes, ne 15:00 UTC
Vėjas 8 kt iš Pietryčių
Temperatūra 16°C
Drėgmė 77%
Slėgis 1022 hPa
Matomumas 10 km arba daugiau
Išsisklaidę debesys ne aukštis 1500 ft
Apsiniaukę ne aukštis 7000 ft

METAR: SLRQ 271500Z 14008KT 9999 SCT015 OVC070 16/12 Q1022

Laikas: 11:12 (15:12 UTC)


TAF: trūkstamas

Orai ataskaitas ir orų prognozės (METAR, TAF).

turimą stotys yra geltonos ir raudonos taškus žemėlapyje.

Perkelti pele per norėdami pamatyti stoties vardą.

Tada spustelėkite, norėdami matyti oro stebėjimo ir prognozės.

Norėdami pakeisti žemėlapį: spustelėkite ant žalios mygtukų su juodo kryžiaus žemyn,; žalią mygtuką su brūkšneliu, jei norite nutolinti; arba žalių rodyklių gretimoms žemėlapius.


METAR-TAF: